createdAt,value
2023-05-21T00:02:19.881Z,12.10
2023-05-21T00:04:47.480Z,10.83
2023-05-21T00:07:15.251Z,11.10
2023-05-21T00:09:41.760Z,12.50
2023-05-21T00:12:09.236Z,12.27
2023-05-21T00:14:36.601Z,10.60
2023-05-21T00:17:03.185Z,10.77
2023-05-21T00:19:29.859Z,11.27
2023-05-21T00:21:57.993Z,11.10
2023-05-21T00:24:24.410Z,12.00
2023-05-21T00:26:50.957Z,12.37
2023-05-21T00:29:17.364Z,14.43
2023-05-21T00:31:43.803Z,10.50
2023-05-21T00:34:10.383Z,10.70
2023-05-21T00:36:36.821Z,10.87
2023-05-21T00:39:04.588Z,18.03
2023-05-21T00:41:31.226Z,10.97
2023-05-21T00:44:00.267Z,11.47
2023-05-21T00:46:29.002Z,12.03
2023-05-21T00:48:58.041Z,12.27
2023-05-21T00:51:25.838Z,11.70
2023-05-21T00:53:52.966Z,12.27
2023-05-21T00:56:22.708Z,12.20
2023-05-21T00:58:51.804Z,10.83
2023-05-21T01:01:19.555Z,11.80
2023-05-21T01:03:48.626Z,14.97
2023-05-21T01:06:16.015Z,11.87
2023-05-21T01:08:42.547Z,11.87
2023-05-21T01:11:09.974Z,12.33
2023-05-21T01:13:39.439Z,12.27
2023-05-21T01:16:06.744Z,11.57
2023-05-21T01:18:37.744Z,12.40
2023-05-21T01:21:05.310Z,12.87
2023-05-21T01:23:32.143Z,11.23
2023-05-21T01:25:58.548Z,11.93
2023-05-21T01:28:25.090Z,11.40
2023-05-21T01:30:52.002Z,13.57
2023-05-21T01:33:24.007Z,16.17
2023-05-21T01:35:58.439Z,12.17
2023-05-21T01:38:37.625Z,11.20
2023-05-21T01:41:09.017Z,14.17
2023-05-21T01:43:39.188Z,11.93
2023-05-21T01:46:10.022Z,12.07
2023-05-21T01:48:37.495Z,11.97
2023-05-21T01:51:05.594Z,11.67
2023-05-21T01:53:32.423Z,12.23
2023-05-21T01:55:59.287Z,12.23
2023-05-21T01:58:25.788Z,12.17
2023-05-21T02:00:52.316Z,16.20
2023-05-21T02:03:20.084Z,12.67
2023-05-21T02:05:47.225Z,14.63
2023-05-21T02:08:15.105Z,12.80
2023-05-21T02:10:41.584Z,13.37
2023-05-21T02:13:08.028Z,13.40
2023-05-21T02:15:35.098Z,11.20
2023-05-21T02:18:02.009Z,13.67
2023-05-21T02:20:28.478Z,11.83
2023-05-21T02:22:54.996Z,11.20
2023-05-21T02:25:21.470Z,12.63
2023-05-21T02:27:48.322Z,14.23
2023-05-21T02:30:16.256Z,11.73
2023-05-21T02:32:43.533Z,11.00
2023-05-21T02:35:12.382Z,12.47
2023-05-21T02:37:44.180Z,12.00
2023-05-21T02:40:11.888Z,11.97
2023-05-21T02:42:40.193Z,14.50
2023-05-21T02:45:11.626Z,11.13
2023-05-21T02:47:39.042Z,11.83
2023-05-21T02:50:07.407Z,10.67
2023-05-21T02:52:33.824Z,11.87
2023-05-21T02:55:00.314Z,11.33
2023-05-21T02:57:26.733Z,11.03
2023-05-21T02:59:53.161Z,10.47
2023-05-21T03:02:19.661Z,10.50
2023-05-21T03:04:46.501Z,10.87
2023-05-21T03:07:21.117Z,10.30
2023-05-21T03:09:47.475Z,13.17
2023-05-21T03:12:13.907Z,10.67
2023-05-21T03:14:42.515Z,11.03
2023-05-21T03:17:08.933Z,11.43
2023-05-21T03:19:36.405Z,10.00
2023-05-21T03:22:06.079Z,10.43
2023-05-21T03:24:33.082Z,11.43
2023-05-21T03:27:01.430Z,11.03
2023-05-21T03:29:29.134Z,13.33
2023-05-21T03:31:55.810Z,10.60
2023-05-21T03:34:22.420Z,10.20
2023-05-21T03:36:49.502Z,11.30
2023-05-21T03:39:16.179Z,9.93
2023-05-21T03:41:43.248Z,9.90
2023-05-21T03:44:09.901Z,13.17
2023-05-21T03:46:36.395Z,9.60
2023-05-21T03:49:02.917Z,9.80
2023-05-21T03:51:31.532Z,10.83
2023-05-21T03:53:59.116Z,9.40
2023-05-21T03:56:26.366Z,9.27
2023-05-21T03:58:53.031Z,10.47
2023-05-21T04:01:19.776Z,9.73
2023-05-21T04:03:46.535Z,9.43
2023-05-21T04:06:13.600Z,10.43
2023-05-21T04:08:39.982Z,10.20
2023-05-21T04:11:06.637Z,16.90
2023-05-21T04:13:33.039Z,9.87
2023-05-21T04:15:59.708Z,10.13
2023-05-21T04:18:26.823Z,10.57
2023-05-21T04:20:53.747Z,10.97
2023-05-21T04:23:20.245Z,9.70
2023-05-21T04:25:50.895Z,11.87
2023-05-21T04:28:21.002Z,10.17
2023-05-21T04:30:48.115Z,12.07
2023-05-21T04:33:18.425Z,9.13
2023-05-21T04:35:49.834Z,9.77
2023-05-21T04:38:19.566Z,9.53
2023-05-21T04:40:52.562Z,9.30
2023-05-21T04:43:25.720Z,11.07
2023-05-21T04:45:54.661Z,12.03
2023-05-21T04:48:27.181Z,10.20
2023-05-21T04:50:54.018Z,10.13
2023-05-21T04:53:20.725Z,12.17
2023-05-21T04:55:47.252Z,9.03
2023-05-21T04:58:13.818Z,11.67
2023-05-21T05:00:42.120Z,10.30
2023-05-21T05:03:08.773Z,10.27
2023-05-21T05:05:35.538Z,13.07
2023-05-21T05:08:02.489Z,9.60
2023-05-21T05:10:29.064Z,11.33
2023-05-21T05:12:55.434Z,9.70
2023-05-21T05:15:21.912Z,10.40
2023-05-21T05:17:50.457Z,9.93
2023-05-21T05:20:17.021Z,10.50
2023-05-21T05:22:43.391Z,9.80
2023-05-21T05:25:09.886Z,10.53
2023-05-21T05:27:38.380Z,12.57
2023-05-21T05:30:05.589Z,10.80
2023-05-21T05:32:32.258Z,11.07
2023-05-21T05:35:00.402Z,9.90
2023-05-21T05:37:27.914Z,11.40
2023-05-21T05:39:55.191Z,10.37
2023-05-21T05:42:21.665Z,13.10
2023-05-21T05:44:48.187Z,9.43
2023-05-21T05:47:14.595Z,10.37
2023-05-21T05:49:41.150Z,10.40
2023-05-21T05:52:07.548Z,9.77
2023-05-21T05:54:33.976Z,9.33
2023-05-21T05:57:00.853Z,11.03
2023-05-21T05:59:27.272Z,9.57
2023-05-21T06:01:53.673Z,11.07
2023-05-21T06:04:20.131Z,12.13
2023-05-21T06:06:47.352Z,10.33
2023-05-21T06:09:13.953Z,10.80
2023-05-21T06:11:40.570Z,10.57
2023-05-21T06:14:07.029Z,9.23
2023-05-21T06:16:33.900Z,9.50
2023-05-21T06:19:00.541Z,8.90
2023-05-21T06:21:27.014Z,10.10
2023-05-21T06:23:53.446Z,13.53
2023-05-21T06:26:20.032Z,10.37
2023-05-21T06:28:46.409Z,11.03
2023-05-21T06:31:13.550Z,11.10
2023-05-21T06:33:40.168Z,9.73
2023-05-21T06:36:06.623Z,8.80
2023-05-21T06:38:33.123Z,9.40
2023-05-21T06:40:59.603Z,9.80
2023-05-21T06:43:26.172Z,9.17
2023-05-21T06:45:52.588Z,9.60
2023-05-21T06:48:19.056Z,9.80
2023-05-21T06:50:45.390Z,11.00
2023-05-21T06:53:11.779Z,8.70
2023-05-21T06:55:38.445Z,13.33
2023-05-21T06:58:05.003Z,9.07
2023-05-21T07:00:31.488Z,8.83
2023-05-21T07:02:57.999Z,8.90
2023-05-21T07:05:24.523Z,8.77
2023-05-21T07:07:50.951Z,9.80
2023-05-21T07:10:17.492Z,9.57
2023-05-21T07:12:43.951Z,8.97
2023-05-21T07:15:10.831Z,10.20
2023-05-21T07:17:37.702Z,10.10
2023-05-21T07:20:11.473Z,11.97
2023-05-21T07:22:39.240Z,11.70
2023-05-21T07:25:06.535Z,9.43
2023-05-21T07:27:32.923Z,10.27
2023-05-21T07:29:59.441Z,9.30
2023-05-21T07:32:26.794Z,8.80
2023-05-21T07:34:54.442Z,9.17
2023-05-21T07:37:22.210Z,11.23
2023-05-21T07:39:48.661Z,9.27
2023-05-21T07:42:15.061Z,9.30
2023-05-21T07:44:41.443Z,10.90
2023-05-21T07:47:07.848Z,10.03
2023-05-21T07:49:34.331Z,10.80
2023-05-21T07:52:00.742Z,11.43
2023-05-21T07:54:27.148Z,11.63
2023-05-21T07:56:53.585Z,10.17
2023-05-21T07:59:20.012Z,10.27
2023-05-21T08:01:46.363Z,10.27
2023-05-21T08:04:12.960Z,10.27
2023-05-21T08:06:39.554Z,10.07
2023-05-21T08:09:06.697Z,11.40
2023-05-21T08:11:33.300Z,10.00
2023-05-21T08:14:00.046Z,11.07
2023-05-21T08:16:26.691Z,11.67
2023-05-21T08:18:53.441Z,10.60
2023-05-21T08:21:19.933Z,9.80
2023-05-21T08:23:46.356Z,10.10
2023-05-21T08:26:12.967Z,10.20
2023-05-21T08:28:39.462Z,10.83
2023-05-21T08:31:06.135Z,10.40
2023-05-21T08:33:37.138Z,10.23
2023-05-21T08:36:05.476Z,10.93
2023-05-21T08:38:32.052Z,10.47
2023-05-21T08:40:59.670Z,10.20
2023-05-21T08:43:29.171Z,9.97
2023-05-21T08:45:59.295Z,9.70
2023-05-21T08:48:26.289Z,10.17
2023-05-21T08:50:54.273Z,11.10
2023-05-21T08:53:27.982Z,11.77
2023-05-21T08:55:57.090Z,11.13
2023-05-21T08:58:23.798Z,10.27
2023-05-21T09:00:50.686Z,11.47
2023-05-21T09:03:17.368Z,10.13
2023-05-21T09:05:45.126Z,10.87
2023-05-21T09:08:41.024Z,10.13
2023-05-21T09:11:07.478Z,10.50
2023-05-21T09:13:36.263Z,10.77
2023-05-21T09:16:04.809Z,10.87
2023-05-21T09:18:31.363Z,10.10
2023-05-21T09:20:59.475Z,9.53
2023-05-21T09:23:28.782Z,9.23
2023-05-21T09:25:55.129Z,10.63
2023-05-21T09:28:21.611Z,9.17
2023-05-21T09:30:49.639Z,9.00
2023-05-21T09:33:26.546Z,10.53
2023-05-21T09:35:53.064Z,9.03
2023-05-21T09:38:22.217Z,12.23
2023-05-21T09:40:48.679Z,9.30
2023-05-21T09:43:16.247Z,9.73
2023-05-21T09:45:53.527Z,9.13
2023-05-21T09:48:40.816Z,8.13
2023-05-21T09:51:16.902Z,9.23
2023-05-21T09:54:00.055Z,9.30
2023-05-21T09:56:31.908Z,8.17
2023-05-21T09:59:01.354Z,8.87
2023-05-21T10:01:28.682Z,8.82
2023-05-21T10:03:59.910Z,9.52
2023-05-21T10:06:28.771Z,8.80
2023-05-21T10:08:57.424Z,8.52
2023-05-21T10:11:26.937Z,9.65
2023-05-21T10:14:07.612Z,9.30
2023-05-21T10:16:35.788Z,8.90
2023-05-21T10:19:02.856Z,12.48
2023-05-21T10:21:31.096Z,9.60
2023-05-21T10:23:57.573Z,9.05
2023-05-21T10:26:24.812Z,9.73
2023-05-21T10:28:52.166Z,9.60
2023-05-21T10:31:18.850Z,10.15
2023-05-21T10:33:45.246Z,9.40
2023-05-21T10:36:11.866Z,11.02
2023-05-21T10:38:39.310Z,9.95
2023-05-21T10:41:07.311Z,9.30
2023-05-21T10:44:11.054Z,11.65
2023-05-21T10:46:53.894Z,12.90
2023-05-21T10:49:43.898Z,9.05
2023-05-21T10:52:28.983Z,10.20
2023-05-21T10:55:02.077Z,10.93
2023-05-21T10:57:56.267Z,10.50
2023-05-21T11:00:25.778Z,10.13
2023-05-21T11:02:53.126Z,10.77
2023-05-21T11:05:52.084Z,10.02
2023-05-21T11:08:22.875Z,8.82
2023-05-21T11:10:58.272Z,10.20
2023-05-21T11:13:31.466Z,9.50
2023-05-21T11:15:57.848Z,9.15
2023-05-21T11:18:47.101Z,9.70
2023-05-21T11:21:17.875Z,9.27
2023-05-21T11:23:54.311Z,9.15
2023-05-21T11:26:22.503Z,9.52
2023-05-21T11:29:04.310Z,11.07
2023-05-21T11:31:38.745Z,10.48
2023-05-21T11:34:11.313Z,9.70
2023-05-21T11:36:38.827Z,9.65
2023-05-21T11:39:11.689Z,9.77
2023-05-21T11:41:58.104Z,9.65
2023-05-21T11:44:44.754Z,9.60
2023-05-21T11:47:13.034Z,10.10
2023-05-21T11:49:39.468Z,9.50
2023-05-21T11:52:07.977Z,8.43
2023-05-21T11:54:43.964Z,9.88
2023-05-21T11:57:10.886Z,9.13
2023-05-21T11:59:37.314Z,9.00
2023-05-21T12:02:04.808Z,10.43
2023-05-21T12:04:38.675Z,9.35
2023-05-21T12:07:07.305Z,10.40
2023-05-21T12:09:40.465Z,9.60
2023-05-21T12:12:09.168Z,9.57
2023-05-21T12:14:36.959Z,8.65
2023-05-21T12:17:04.885Z,9.02
2023-05-21T12:19:35.617Z,9.52
2023-05-21T12:22:12.153Z,9.70
2023-05-21T12:24:39.190Z,8.70
2023-05-21T12:27:09.611Z,11.95
2023-05-21T12:29:38.392Z,8.90
2023-05-21T12:32:08.840Z,9.20
2023-05-21T12:34:50.323Z,10.13
2023-05-21T12:37:22.867Z,10.00
2023-05-21T12:39:51.509Z,9.55
2023-05-21T12:42:31.540Z,10.38
2023-05-21T12:44:58.577Z,9.93
2023-05-21T12:47:27.536Z,9.98
2023-05-21T12:49:57.956Z,12.52
2023-05-21T12:52:25.568Z,10.95
2023-05-21T12:54:53.973Z,9.40
2023-05-21T12:57:40.634Z,10.07
2023-05-21T13:00:07.892Z,10.70
2023-05-21T13:02:39.745Z,10.10
2023-05-21T13:05:08.583Z,10.10
2023-05-21T13:07:38.023Z,9.80
2023-05-21T13:10:06.099Z,9.52
2023-05-21T13:12:33.571Z,11.73
2023-05-21T13:15:01.931Z,11.85
2023-05-21T13:17:29.025Z,9.30
2023-05-21T13:20:21.316Z,10.15
2023-05-21T13:22:50.764Z,13.82
2023-05-21T13:25:22.833Z,9.07
2023-05-21T13:27:50.565Z,10.00
2023-05-21T13:30:17.892Z,10.95
2023-05-21T13:32:45.168Z,9.20
2023-05-21T13:35:12.313Z,10.45
2023-05-21T13:37:40.470Z,9.63
2023-05-21T13:40:11.501Z,10.18
2023-05-21T13:42:40.498Z,9.85
2023-05-21T13:45:08.279Z,9.38
2023-05-21T13:47:36.240Z,8.90
2023-05-21T13:50:05.230Z,9.35
2023-05-21T13:52:31.668Z,9.10
2023-05-21T13:54:58.118Z,10.43
2023-05-21T13:57:27.430Z,10.02
2023-05-21T13:59:53.921Z,9.95
2023-05-21T14:02:20.431Z,9.45
2023-05-21T14:04:46.984Z,10.30
2023-05-21T14:07:13.415Z,9.73
2023-05-21T14:09:39.933Z,9.07
2023-05-21T14:12:07.532Z,9.93
2023-05-21T14:14:34.080Z,9.90
2023-05-21T14:17:00.667Z,9.77
2023-05-21T14:19:27.394Z,10.90
2023-05-21T14:21:54.012Z,10.00
2023-05-21T14:24:20.547Z,10.60
2023-05-21T14:26:47.030Z,9.73
2023-05-21T14:29:14.172Z,9.30
2023-05-21T14:31:40.687Z,10.07
2023-05-21T14:34:08.737Z,9.18
2023-05-21T14:36:36.184Z,10.73
2023-05-21T14:39:02.649Z,8.60
2023-05-21T14:41:29.518Z,8.73
2023-05-21T14:43:55.978Z,10.93
2023-05-21T14:46:22.662Z,9.45
2023-05-21T14:48:49.340Z,9.63
2023-05-21T14:51:15.972Z,9.13
2023-05-21T14:53:42.342Z,9.50
2023-05-21T14:56:08.987Z,9.55
2023-05-21T14:58:35.607Z,9.20
2023-05-21T15:01:03.952Z,8.98
2023-05-21T15:03:30.693Z,9.50
2023-05-21T15:05:58.389Z,8.25
2023-05-21T15:08:24.821Z,11.15
2023-05-21T15:10:51.307Z,9.30
2023-05-21T15:13:17.739Z,9.55
2023-05-21T15:15:44.625Z,9.25
2023-05-21T15:18:11.577Z,10.55
2023-05-21T15:20:38.085Z,9.25
2023-05-21T15:23:16.121Z,9.55
2023-05-21T15:25:43.582Z,9.98
2023-05-21T15:28:11.693Z,9.27
2023-05-21T15:30:38.155Z,9.63
2023-05-21T15:33:04.717Z,9.25
2023-05-21T15:35:31.297Z,9.20
2023-05-21T15:37:57.859Z,9.18
2023-05-21T15:40:26.769Z,10.32
2023-05-21T15:42:53.612Z,9.55
2023-05-21T15:45:20.192Z,9.73
2023-05-21T15:47:46.784Z,9.57
2023-05-21T15:50:13.285Z,10.63
2023-05-21T15:52:42.190Z,9.77
2023-05-21T15:55:09.176Z,10.52
2023-05-21T15:57:35.696Z,9.60
2023-05-21T16:00:02.144Z,10.00
2023-05-21T16:02:28.859Z,9.82
2023-05-21T16:04:55.584Z,9.15
2023-05-21T16:07:23.475Z,10.15
2023-05-21T16:09:49.996Z,10.32
2023-05-21T16:12:16.468Z,10.10
2023-05-21T16:14:42.932Z,10.30
2023-05-21T16:17:09.613Z,12.45
2023-05-21T16:19:36.123Z,10.73
2023-05-21T16:22:02.575Z,10.57
2023-05-21T16:24:29.119Z,10.93
2023-05-21T16:26:55.672Z,11.45
2023-05-21T16:29:22.269Z,10.48
2023-05-21T16:31:48.950Z,10.93
2023-05-21T16:34:15.724Z,10.07
2023-05-21T16:36:42.219Z,11.00
2023-05-21T16:39:08.635Z,10.60
2023-05-21T16:41:35.084Z,12.20
2023-05-21T16:44:01.556Z,11.45
2023-05-21T16:46:28.693Z,11.70
2023-05-21T16:48:55.147Z,12.02
2023-05-21T16:51:21.536Z,12.15
2023-05-21T16:53:48.173Z,10.98
2023-05-21T16:56:14.701Z,11.63
2023-05-21T16:58:41.210Z,11.70
2023-05-21T17:01:07.827Z,10.93
2023-05-21T17:03:34.375Z,11.60
2023-05-21T17:06:00.928Z,10.88
2023-05-21T17:08:27.390Z,11.68
2023-05-21T17:10:54.641Z,12.23
2023-05-21T17:13:22.990Z,11.90
2023-05-21T17:15:51.200Z,11.55
2023-05-21T17:18:17.813Z,11.52
2023-05-21T17:20:44.752Z,11.55
2023-05-21T17:23:11.776Z,11.38
2023-05-21T17:25:38.655Z,12.23
2023-05-21T17:28:05.406Z,13.73
2023-05-21T17:30:32.115Z,13.95
2023-05-21T17:32:58.583Z,13.30
2023-05-21T17:35:25.112Z,14.07
2023-05-21T17:37:53.295Z,13.30
2023-05-21T17:40:21.316Z,15.15
2023-05-21T17:42:47.876Z,14.80
2023-05-21T17:45:14.382Z,13.75
2023-05-21T17:47:40.901Z,14.25
2023-05-21T17:50:08.112Z,14.63
2023-05-21T17:52:34.613Z,15.60
2023-05-21T17:55:01.538Z,14.85
2023-05-21T17:57:27.986Z,14.55
2023-05-21T17:59:55.279Z,15.98
2023-05-21T18:02:23.346Z,15.48
2023-05-21T18:04:49.895Z,14.75
2023-05-21T18:07:16.540Z,15.18
2023-05-21T18:09:42.931Z,15.10
2023-05-21T18:12:09.454Z,14.75
2023-05-21T18:14:35.940Z,13.80
2023-05-21T18:17:02.484Z,15.00
2023-05-21T18:19:30.265Z,14.13
2023-05-21T18:21:56.830Z,13.43
2023-05-21T18:24:23.294Z,13.52
2023-05-21T18:26:49.861Z,14.02
2023-05-21T18:29:16.320Z,13.15
2023-05-21T18:31:45.977Z,13.80
2023-05-21T18:34:12.598Z,13.57
2023-05-21T18:36:40.040Z,17.08
2023-05-21T18:39:09.986Z,15.70
2023-05-21T18:41:37.142Z,15.52
2023-05-21T18:44:05.721Z,15.77
2023-05-21T18:46:32.151Z,16.05
2023-05-21T18:49:00.468Z,15.30
2023-05-21T18:51:27.006Z,15.10
2023-05-21T18:53:53.384Z,15.07
2023-05-21T18:56:19.817Z,14.82
2023-05-21T18:58:47.634Z,14.68
2023-05-21T19:01:14.335Z,14.10
2023-05-21T19:03:40.962Z,14.95
2023-05-21T19:06:08.369Z,15.93
2023-05-21T19:08:34.861Z,15.98
2023-05-21T19:11:01.260Z,16.20
2023-05-21T19:13:27.827Z,16.85
2023-05-21T19:15:54.371Z,19.85
2023-05-21T19:18:20.822Z,17.30
2023-05-21T19:20:47.279Z,16.27
2023-05-21T19:23:13.800Z,18.45
2023-05-21T19:25:40.408Z,17.77
2023-05-21T19:28:06.974Z,17.95
2023-05-21T19:30:36.271Z,17.45
2023-05-21T19:33:03.523Z,17.27
2023-05-21T19:35:30.350Z,18.37
2023-05-21T19:38:00.172Z,17.48
2023-05-21T19:40:27.616Z,19.13
2023-05-21T19:42:54.086Z,16.67
2023-05-21T19:45:21.524Z,16.90
2023-05-21T19:47:48.417Z,17.67
2023-05-21T19:50:15.049Z,16.92
2023-05-21T19:52:41.516Z,17.00
2023-05-21T19:55:10.193Z,17.30
2023-05-21T19:57:37.244Z,17.60
2023-05-21T20:00:05.318Z,17.23
2023-05-21T20:02:32.018Z,17.48
2023-05-21T20:04:59.019Z,17.88
2023-05-21T20:07:25.452Z,17.23
2023-05-21T20:09:52.439Z,16.47
2023-05-21T20:12:19.250Z,16.87
2023-05-21T20:14:47.443Z,17.35
2023-05-21T20:17:14.309Z,17.98
2023-05-21T20:19:40.977Z,18.70
2023-05-21T20:22:07.412Z,16.85
2023-05-21T20:24:33.817Z,18.85
2023-05-21T20:27:01.857Z,17.45
2023-05-21T20:29:28.963Z,17.88
2023-05-21T20:31:55.467Z,17.25
2023-05-21T20:34:21.990Z,16.88
2023-05-21T20:36:48.575Z,17.17
2023-05-21T20:39:15.592Z,17.70
2023-05-21T20:41:44.858Z,16.83
2023-05-21T20:44:11.758Z,16.93
2023-05-21T20:46:41.163Z,17.67
2023-05-21T20:49:07.750Z,17.63
2023-05-21T20:51:34.154Z,17.70
2023-05-21T20:54:00.661Z,18.13
2023-05-21T20:56:40.720Z,17.83
2023-05-21T20:59:10.824Z,17.90
2023-05-21T21:01:38.438Z,18.08
2023-05-21T21:04:05.224Z,20.00
2023-05-21T21:06:31.879Z,19.77
2023-05-21T21:08:58.588Z,19.77
2023-05-21T21:11:25.151Z,19.13
2023-05-21T21:13:51.805Z,20.23
2023-05-21T21:16:18.634Z,18.77
2023-05-21T21:18:46.765Z,19.53
2023-05-21T21:21:13.836Z,19.93
2023-05-21T21:23:40.452Z,20.17
2023-05-21T21:26:07.139Z,20.77
2023-05-21T21:28:33.670Z,19.77
2023-05-21T21:31:00.323Z,20.23
2023-05-21T21:33:26.995Z,21.47
2023-05-21T21:35:53.534Z,20.00
2023-05-21T21:38:20.044Z,19.70
2023-05-21T21:40:46.465Z,19.90
2023-05-21T21:43:12.833Z,20.13
2023-05-21T21:45:39.347Z,21.03
2023-05-21T21:48:06.453Z,20.50
2023-05-21T21:50:32.880Z,19.90
2023-05-21T21:52:59.992Z,19.77
2023-05-21T21:55:26.485Z,20.40
2023-05-21T21:57:52.941Z,19.47
2023-05-21T22:00:19.693Z,19.20
2023-05-21T22:02:48.762Z,19.70
2023-05-21T22:05:15.201Z,19.53
2023-05-21T22:07:46.346Z,18.50
2023-05-21T22:10:14.809Z,18.13
2023-05-21T22:12:41.422Z,18.23
2023-05-21T22:15:09.030Z,17.83
2023-05-21T22:17:35.445Z,18.23
2023-05-21T22:20:01.884Z,18.33
2023-05-21T22:22:28.433Z,19.10
2023-05-21T22:24:54.975Z,17.57
2023-05-21T22:27:21.488Z,18.90
2023-05-21T22:29:48.018Z,17.87
2023-05-21T22:32:14.464Z,17.53
2023-05-21T22:34:41.906Z,19.50
2023-05-21T22:37:08.401Z,17.30
2023-05-21T22:39:34.851Z,17.57
2023-05-21T22:42:01.468Z,18.13
2023-05-21T22:44:27.935Z,18.70
2023-05-21T22:46:56.218Z,17.37
2023-05-21T22:49:22.794Z,17.20
2023-05-21T22:51:49.610Z,18.10
2023-05-21T22:54:16.035Z,17.30
2023-05-21T22:56:42.470Z,18.23
2023-05-21T22:59:08.922Z,18.27
2023-05-21T23:01:36.776Z,17.67
2023-05-21T23:04:03.786Z,18.87
2023-05-21T23:06:30.675Z,17.73
2023-05-21T23:08:57.084Z,18.83
2023-05-21T23:11:23.556Z,16.90
2023-05-21T23:13:49.984Z,18.90
2023-05-21T23:16:16.866Z,18.23
2023-05-21T23:18:43.374Z,17.63
2023-05-21T23:21:09.924Z,19.07
2023-05-21T23:23:36.457Z,17.40
2023-05-21T23:26:02.879Z,17.77
2023-05-21T23:28:29.399Z,17.33
2023-05-21T23:30:55.883Z,17.20
2023-05-21T23:33:22.291Z,18.07
2023-05-21T23:35:48.823Z,19.20
2023-05-21T23:38:15.306Z,19.40
2023-05-21T23:40:41.977Z,18.70
2023-05-21T23:43:08.436Z,19.93
2023-05-21T23:45:34.859Z,19.93
2023-05-21T23:48:01.318Z,19.80
2023-05-21T23:50:27.920Z,20.90
2023-05-21T23:52:54.338Z,19.83
2023-05-21T23:55:20.793Z,19.80
2023-05-21T23:57:47.221Z,20.90
